Terminal Aerodrome Forecast
Issued by NWS

Home | Current Version | Previous Version | Text Only | Print | Product List | Glossary On
Versions: 1 2 3 4 5 6 7 8 9 10 11 12 13 14 15 16 17 18 19 20
000
FTUS43 KDMX 210520
TAFFOD
TAF
KFOD 210520Z 2106/2206 08007KT 4SM -RA BR BKN009 OVC025
     FM210800 08005KT 6SM BR OVC006
     FM210900 08005KT 5SM BR OVC005
     FM211500 08005KT P6SM VCSH OVC007
     FM211700 32004KT P6SM OVC008
     FM212100 33005KT P6SM BKN017
     FM220100 02004KT P6SM SCT022=

USA.gov is the U.S. government's official web portal to all federal, state and local government web resources and services.